Time;durP1;ratioP1;P1;durP2;ratioP2;P2;SDS_P1;SDS_P2;PMS_P1;PMS_P2;Temp;Humidity;BMP_temperature;BMP_pressure;BME280_temperature;BME280_humidity;BME280_pressure;Samples;Min_cycle;Max_cycle;Signal;HPM_P1;HPM_P2
2022/09/18 00:01:19;;;;;;;7.30;2.20;;;;;;;10.61;100.00;101587.06;5028858;28;20505;-83
2022/09/18 00:03:46;;;;;;;9.00;2.92;;;;;;;10.63;100.00;101580.75;5028865;28;20057;-83
2022/09/18 00:06:14;;;;;;;7.93;3.25;;;;;;;10.64;100.00;101577.19;5010626;28;20021;-83
2022/09/18 00:08:42;;;;;;;9.07;3.53;;;;;;;10.63;100.00;101580.75;4994274;28;20435;-84
2022/09/18 00:11:09;;;;;;;10.27;3.83;;;;;;;10.63;100.00;101586.03;5008749;28;20409;-83
2022/09/18 00:13:36;;;;;;;10.15;4.55;;;;;;;10.64;100.00;101587.72;4997193;28;20057;-83
2022/09/18 00:16:02;;;;;;;14.93;4.95;;;;;;;10.66;100.00;101579.72;4989891;28;20023;-83
2022/09/18 00:18:27;;;;;;;7.00;3.40;;;;;;;10.61;100.00;101581.78;4971371;28;20081;-84
2022/09/18 00:20:52;;;;;;;9.75;4.00;;;;;;;10.59;100.00;101579.25;5004385;28;20026;-84
2022/09/18 00:23:18;;;;;;;10.25;4.55;;;;;;;10.65;100.00;101578.03;5001550;28;20031;-83
2022/09/18 00:25:43;;;;;;;12.93;5.15;;;;;;;10.65;100.00;101578.88;4997620;28;20026;-83
2022/09/18 00:28:11;;;;;;;7.53;3.40;;;;;;;10.65;100.00;101576.25;4991826;28;20033;-84
2022/09/18 00:30:37;;;;;;;8.77;3.55;;;;;;;10.65;100.00;101568.34;5009718;28;20030;-84
2022/09/18 00:33:02;;;;;;;9.57;4.53;;;;;;;10.65;100.00;101573.59;5008392;28;20446;-84
2022/09/18 00:35:28;;;;;;;12.30;6.32;;;;;;;10.67;100.00;101576.16;5009572;28;20127;-84
2022/09/18 00:37:53;;;;;;;8.38;3.85;;;;;;;10.67;100.00;101573.50;5009908;28;20034;-84
2022/09/18 00:40:18;;;;;;;9.82;3.60;;;;;;;10.70;100.00;101569.84;4990660;28;20076;-84
2022/09/18 00:42:44;;;;;;;10.55;3.35;;;;;;;10.67;100.00;101582.25;5003443;28;20479;-83
2022/09/18 00:45:10;;;;;;;7.20;2.95;;;;;;;10.71;100.00;101582.06;4992990;28;20105;-83
2022/09/18 00:47:49;;;;;;;10.00;3.33;;;;;;;10.71;100.00;101587.31;4991087;28;20018;-83
2022/09/18 00:50:23;;;;;;;8.70;3.30;;;;;;;10.73;100.00;101577.53;5013335;28;20028;-83
2022/09/18 00:53:02;;;;;;;8.52;3.15;;;;;;;10.75;100.00;101583.56;5013407;28;20100;-83
2022/09/18 00:55:38;;;;;;;9.05;3.40;;;;;;;10.72;100.00;101574.06;4995146;28;20097;-84
2022/09/18 00:58:04;;;;;;;11.35;3.30;;;;;;;10.73;100.00;101572.28;5013098;28;20026;-83
2022/09/18 01:00:30;;;;;;;7.90;3.47;;;;;;;10.71;100.00;101576.78;5011044;28;20366;-84
2022/09/18 01:02:57;;;;;;;6.85;3.42;;;;;;;10.71;100.00;101577.63;5012722;28;20029;-84
2022/09/18 01:05:35;;;;;;;8.82;2.88;;;;;;;10.72;100.00;101578.50;5013167;28;20087;-83
2022/09/18 01:08:19;;;;;;;8.40;3.22;;;;;;;10.72;100.00;101568.81;4994329;28;20034;-83
2022/09/18 01:11:01;;;;;;;9.18;3.10;;;;;;;10.71;100.00;101571.53;4995085;28;20054;-83
2022/09/18 01:13:53;;;;;;;8.00;2.80;;;;;;;10.71;100.00;101576.78;5012312;28;20054;-83
2022/09/18 01:16:23;;;;;;;8.77;2.92;;;;;;;10.71;100.00;101579.44;5010262;28;20471;-84
2022/09/18 01:18:57;;;;;;;7.85;3.17;;;;;;;10.74;100.00;101587.97;5012443;28;20037;-83
2022/09/18 01:21:32;;;;;;;8.77;3.05;;;;;;;10.75;100.00;101579.13;5010035;28;20036;-83
2022/09/18 01:24:31;;;;;;;7.53;3.20;;;;;;;10.78;100.00;101578.94;5012633;28;20028;-83
2022/09/18 01:27:10;;;;;;;8.57;3.28;;;;;;;10.77;100.00;101581.66;5011827;28;20537;-83
2022/09/18 01:29:44;;;;;;;9.25;3.50;;;;;;;10.77;100.00;101579.88;5010840;28;20038;-83
2022/09/18 01:32:26;;;;;;;9.82;3.67;;;;;;;10.76;100.00;101588.72;5010994;28;20084;-83
2022/09/18 01:35:21;;;;;;;8.98;3.25;;;;;;;10.77;100.00;101576.41;5007708;28;20029;-83
2022/09/18 01:37:54;;;;;;;11.50;3.70;;;;;;;10.75;100.00;101575.66;5008155;28;20037;-83
2022/09/18 01:40:48;;;;;;;7.60;3.28;;;;;;;10.76;100.00;101579.97;4992776;28;20076;-83
2022/09/18 01:43:17;;;;;;;8.68;3.30;;;;;;;10.74;100.00;101573.97;4988640;28;20202;-83
2022/09/18 01:45:47;;;;;;;6.72;3.20;;;;;;;10.75;100.00;101573.88;4993494;28;20026;-84
2022/09/18 01:48:19;;;;;;;7.90;3.45;;;;;;;10.70;100.00;101569.84;5010616;28;20080;-84
2022/09/18 01:50:53;;;;;;;8.48;3.40;;;;;;;10.72;100.00;101570.59;5012000;28;20030;-83
2022/09/18 01:53:23;;;;;;;8.30;3.80;;;;;;;10.66;100.00;101559.50;5002114;28;20493;-83
2022/09/18 01:56:24;;;;;;;8.85;3.95;;;;;;;10.72;100.00;101562.69;5010225;28;20033;-83
2022/09/18 01:58:52;;;;;;;6.53;3.70;;;;;;;10.63;100.00;101559.69;4960060;28;20037;-84
2022/09/18 02:01:20;;;;;;;9.45;3.80;;;;;;;10.63;100.00;101558.84;5011558;28;20029;-84
2022/09/18 02:03:54;;;;;;;5.63;3.50;;;;;;;10.64;100.00;101561.41;5026611;28;20479;-83
2022/09/18 02:06:39;;;;;;;8.27;4.10;;;;;;;10.66;100.00;101551.63;5026443;28;20083;-83
2022/09/18 02:09:09;;;;;;;9.90;4.25;;;;;;;10.66;100.00;101548.97;5011686;28;20034;-84
2022/09/18 02:11:38;;;;;;;7.40;4.07;;;;;;;10.65;100.00;101555.19;4998370;28;20027;-84
2022/09/18 02:14:10;;;;;;;9.35;3.80;;;;;;;10.68;100.00;101556.78;5006458;28;20064;-84
2022/09/18 02:16:43;;;;;;;9.00;3.88;;;;;;;10.68;100.00;101555.00;4994334;28;20021;-84
2022/09/18 02:19:15;;;;;;;7.35;3.53;;;;;;;10.66;100.00;101548.97;5010977;28;20402;-84
2022/09/18 02:21:42;;;;;;;10.90;3.88;;;;;;;10.69;100.00;101547.94;5013968;28;20025;-84
2022/09/18 02:24:11;;;;;;;13.25;3.70;;;;;;;10.66;100.00;101548.13;5030491;28;20137;-84
2022/09/18 02:26:39;;;;;;;11.00;3.95;;;;;;;10.65;100.00;101544.66;5030728;28;20389;-84
2022/09/18 02:29:12;;;;;;;11.38;3.90;;;;;;;10.67;100.00;101540.16;5018547;28;20022;-84
2022/09/18 02:31:38;;;;;;;9.20;3.83;;;;;;;10.71;100.00;101539.94;5015888;28;20380;-85
2022/09/18 02:34:07;;;;;;;10.40;3.35;;;;;;;10.66;100.00;101541.09;5031433;28;20029;-85
2022/09/18 02:37:02;;;;;;;12.50;3.67;;;;;;;10.69;100.00;101542.69;5031060;28;20076;-85
2022/09/18 02:39:51;;;;;;;14.88;3.22;;;;;;;10.72;100.00;101537.22;5012775;28;20028;-83
2022/09/18 02:42:39;;;;;;;10.13;3.10;;;;;;;10.74;100.00;101534.50;5030777;28;20415;-84
2022/09/18 02:45:21;;;;;;;7.65;3.20;;;;;;;10.72;100.00;101536.38;5012514;28;20036;-83
2022/09/18 02:48:08;;;;;;;10.40;3.53;;;;;;;10.75;100.00;101533.53;5028102;28;20052;-83
2022/09/18 02:51:02;;;;;;;8.80;3.47;;;;;;;10.75;100.00;101542.28;5011271;28;20315;-83
2022/09/18 02:53:33;;;;;;;8.25;2.78;;;;;;;10.73;100.00;101538.91;4988589;28;20063;-85
2022/09/18 02:56:08;;;;;;;8.50;3.03;;;;;;;10.76;100.00;101533.44;5031045;28;20423;-84
2022/09/18 02:58:50;;;;;;;12.18;3.28;;;;;;;10.76;100.00;101527.34;5012847;28;20033;-83
2022/09/18 03:01:17;;;;;;;10.55;3.05;;;;;;;10.80;100.00;101523.56;5029721;28;20028;-83
2022/09/18 03:03:42;;;;;;;12.77;2.83;;;;;;;10.79;100.00;101516.59;5029639;28;20075;-83
2022/09/18 03:06:08;;;;;;;11.75;2.90;;;;;;;10.80;100.00;101534.94;5030168;28;20461;-83
2022/09/18 03:08:34;;;;;;;9.13;3.03;;;;;;;10.78;100.00;101525.44;5029941;28;20034;-84
2022/09/18 03:10:59;;;;;;;11.13;2.90;;;;;;;10.80;100.00;101521.78;5012582;28;20026;-84
2022/09/18 03:13:25;;;;;;;10.55;2.58;;;;;;;10.84;100.00;101519.81;5012110;28;20107;-84
2022/09/18 03:15:50;;;;;;;7.70;2.20;;;;;;;10.85;100.00;101516.25;5030042;28;20029;-84
2022/09/18 03:18:15;;;;;;;9.98;2.50;;;;;;;10.84;100.00;101514.56;5029744;28;20108;-84
2022/09/18 03:20:42;;;;;;;12.50;2.50;;;;;;;10.87;100.00;101517.00;5021165;28;20033;-85
2022/09/18 03:23:09;;;;;;;12.43;2.53;;;;;;;10.84;100.00;101514.56;5015733;28;20392;-84
2022/09/18 03:25:35;;;;;;;7.38;2.08;;;;;;;10.83;100.00;101520.75;5012353;28;20057;-84
2022/09/18 03:28:00;;;;;;;12.07;2.20;;;;;;;10.87;100.00;101530.16;5029413;28;20060;-84
2022/09/18 03:30:26;;;;;;;8.75;2.13;;;;;;;10.87;100.00;101530.16;5012228;28;20508;-85
2022/09/18 03:32:52;;;;;;;6.00;1.70;;;;;;;10.86;100.00;101524.03;5030105;28;20033;-84
2022/09/18 03:35:18;;;;;;;9.95;2.22;;;;;;;10.86;100.00;101524.03;5028636;28;20025;-82
2022/09/18 03:37:43;;;;;;;12.80;2.42;;;;;;;10.83;100.00;101511.06;5028691;28;20037;-82
2022/09/18 03:40:09;;;;;;;11.15;2.53;;;;;;;10.86;100.00;101510.03;4992558;28;20026;-81
2022/09/18 03:42:35;;;;;;;9.68;2.22;;;;;;;10.85;100.00;101518.88;5014509;28;20033;-83
2022/09/18 03:45:00;;;;;;;11.15;2.10;;;;;;;10.84;100.00;101522.44;5030180;28;20087;-84
2022/09/18 03:47:26;;;;;;;7.68;1.63;;;;;;;10.85;100.00;101505.72;5029952;28;20100;-83
2022/09/18 03:49:51;;;;;;;11.23;1.98;;;;;;;10.85;100.00;101503.94;5012219;28;20021;-80
2022/09/18 03:52:17;;;;;;;9.23;2.03;;;;;;;10.83;100.00;101503.19;5011081;28;20655;-81
2022/09/18 03:54:42;;;;;;;8.68;2.03;;;;;;;10.81;100.00;101504.22;5023551;28;20097;-83
2022/09/18 03:57:07;;;;;;;6.50;1.52;;;;;;;10.78;100.00;101499.97;4991731;28;20025;-83
2022/09/18 03:59:33;;;;;;;5.47;1.40;;;;;;;10.76;100.00;101493.13;5010102;28;20105;-83
2022/09/18 04:01:58;;;;;;;5.85;1.30;;;;;;;10.73;100.00;101493.31;4992699;28;20071;-83
2022/09/18 04:04:23;;;;;;;6.90;1.65;;;;;;;10.76;100.00;101487.84;5009202;28;20030;-83
2022/09/18 04:06:49;;;;;;;5.28;1.40;;;;;;;10.73;100.00;101494.16;5010185;28;20501;-83
2022/09/18 04:09:15;;;;;;;6.40;1.50;;;;;;;10.73;100.00;101488.06;5009414;28;20093;-83
2022/09/18 04:11:41;;;;;;;8.18;1.30;;;;;;;10.74;100.00;101484.47;5001261;28;20029;-83
2022/09/18 04:14:06;;;;;;;7.95;1.52;;;;;;;10.72;100.00;101486.38;5011512;28;20452;-83
2022/09/18 04:16:31;;;;;;;7.35;1.50;;;;;;;10.74;100.00;101487.09;5011149;28;20044;-83
2022/09/18 04:18:57;;;;;;;5.00;1.15;;;;;;;10.67;100.00;101487.50;5028552;28;20159;-83
2022/09/18 04:21:22;;;;;;;7.88;1.80;;;;;;;10.67;100.00;101495.41;5028716;28;20029;-83
2022/09/18 04:23:50;;;;;;;10.00;1.95;;;;;;;10.65;100.00;101497.28;5028913;28;20120;-84
2022/09/18 04:26:16;;;;;;;7.03;2.08;;;;;;;10.66;100.00;101496.34;5028781;28;20021;-84
2022/09/18 04:28:41;;;;;;;8.95;1.80;;;;;;;10.63;100.00;101499.19;5029224;28;20156;-84
2022/09/18 04:31:07;;;;;;;6.63;1.58;;;;;;;10.61;100.00;101493.16;5010710;28;20099;-83
2022/09/18 04:33:32;;;;;;;8.98;1.70;;;;;;;10.63;100.00;101501.81;5009408;28;20065;-84
2022/09/18 04:35:57;;;;;;;9.07;1.65;;;;;;;10.65;100.00;101496.44;5009640;28;20030;-84
2022/09/18 04:38:26;;;;;;;9.82;1.70;;;;;;;10.62;100.00;101500.13;5009689;28;20048;-84
2022/09/18 04:40:56;;;;;;;7.82;2.03;;;;;;;10.59;100.00;101504.72;5011732;28;20624;-84
2022/09/18 04:43:22;;;;;;;5.47;1.88;;;;;;;10.57;100.00;101509.25;5028825;28;20055;-84
2022/09/18 04:45:48;;;;;;;8.80;1.98;;;;;;;10.52;100.00;101504.28;5025269;28;20030;-84
2022/09/18 04:48:14;;;;;;;8.80;2.17;;;;;;;10.56;100.00;101503.16;5028919;28;20036;-83
2022/09/18 04:50:41;;;;;;;12.00;2.35;;;;;;;10.58;100.00;101498.63;5029332;28;20132;-84
2022/09/18 04:53:07;;;;;;;7.28;2.22;;;;;;;10.57;100.00;101506.63;5028064;28;20108;-84
2022/09/18 04:55:32;;;;;;;10.18;1.90;;;;;;;10.57;100.00;101507.47;5029008;28;20025;-84
2022/09/18 04:57:57;;;;;;;9.35;1.95;;;;;;;10.58;100.00;101509.16;5011448;28;20021;-84
2022/09/18 05:00:23;;;;;;;6.18;1.75;;;;;;;10.59;100.00;101504.72;5010444;28;20116;-83
2022/09/18 05:02:48;;;;;;;6.07;1.75;;;;;;;10.57;100.00;101496.94;5010214;28;20405;-83
2022/09/18 05:05:13;;;;;;;7.22;1.88;;;;;;;10.56;100.00;101495.25;5008944;28;20125;-83
2022/09/18 05:07:39;;;;;;;9.55;1.48;;;;;;;10.56;100.00;101500.50;5008570;28;20092;-84
2022/09/18 05:10:07;;;;;;;6.30;1.67;;;;;;;10.58;100.00;101487.25;5009497;28;20026;-84
2022/09/18 05:12:32;;;;;;;7.90;1.55;;;;;;;10.59;100.00;101474.00;4996659;28;20112;-83
2022/09/18 05:14:58;;;;;;;8.15;1.70;;;;;;;10.60;100.00;101480.94;5010216;28;20034;-84
2022/09/18 05:17:23;;;;;;;6.63;1.42;;;;;;;10.60;100.00;101485.38;5028754;28;20025;-84
2022/09/18 05:19:48;;;;;;;7.88;1.70;;;;;;;10.60;100.00;101490.63;5024151;28;20029;-83
2022/09/18 05:22:14;;;;;;;8.75;1.75;;;;;;;10.62;100.00;101497.50;5027099;28;20029;-84
2022/09/18 05:24:39;;;;;;;9.98;2.10;;;;;;;10.62;100.00;101505.38;5010773;28;20378;-84
2022/09/18 05:27:04;;;;;;;12.27;2.35;;;;;;;10.60;100.00;101494.13;5010826;28;20421;-82
2022/09/18 05:29:30;;;;;;;10.93;2.13;;;;;;;10.60;100.00;101494.13;5028986;28;20029;-82
2022/09/18 05:31:56;;;;;;;7.05;1.83;;;;;;;10.61;100.00;101505.47;5014732;28;20021;-82
2022/09/18 05:34:21;;;;;;;13.10;1.90;;;;;;;10.63;100.00;101508.84;5031703;28;20804;-82
2022/09/18 05:36:46;;;;;;;7.78;1.40;;;;;;;10.60;100.00;101516.94;5013573;28;20029;-82
2022/09/18 05:39:11;;;;;;;8.15;1.83;;;;;;;10.60;100.00;101520.44;5014196;28;20035;-83
2022/09/18 05:41:37;;;;;;;9.70;2.08;;;;;;;10.60;100.00;101511.69;5031242;28;20036;-82
2022/09/18 05:44:02;;;;;;;9.27;2.00;;;;;;;10.62;100.00;101508.00;5032069;28;20044;-83
2022/09/18 05:46:27;;;;;;;9.98;2.00;;;;;;;10.60;100.00;101507.28;5014244;28;20406;-83
2022/09/18 05:48:53;;;;;;;9.73;2.47;;;;;;;10.65;100.00;101499.91;5014277;28;20029;-83
2022/09/18 05:51:18;;;;;;;9.55;2.17;;;;;;;10.68;100.00;101499.72;5030445;28;20390;-82
2022/09/18 05:53:47;;;;;;;15.00;2.90;;;;;;;10.70;100.00;101506.69;5008541;28;20030;-83
2022/09/18 05:56:15;;;;;;;8.10;2.35;;;;;;;10.65;100.00;101505.19;4994054;28;20022;-83
2022/09/18 05:58:41;;;;;;;12.15;2.30;;;;;;;10.71;100.00;101500.47;4995524;28;20022;-83
2022/09/18 06:01:06;;;;;;;11.55;2.30;;;;;;;10.72;100.00;101499.53;5012381;28;20029;-83
2022/09/18 06:03:31;;;;;;;10.60;2.42;;;;;;;10.74;100.00;101502.91;5012000;28;20033;-83
2022/09/18 06:05:57;;;;;;;10.90;2.38;;;;;;;10.77;100.00;101505.34;5012528;28;20417;-83
2022/09/18 06:08:22;;;;;;;10.20;2.92;;;;;;;10.78;100.00;101499.13;5018905;28;20032;-83
2022/09/18 06:10:48;;;;;;;10.20;2.08;;;;;;;10.78;100.00;101493.88;5001307;28;20493;-84
2022/09/18 06:13:16;;;;;;;12.63;2.22;;;;;;;10.79;100.00;101485.88;5013745;28;20465;-83
2022/09/18 06:15:46;;;;;;;10.30;2.70;;;;;;;10.84;100.00;101493.50;5014689;28;20533;-83
2022/09/18 06:18:13;;;;;;;10.00;2.60;;;;;;;10.88;100.00;101489.72;5031016;28;20028;-83
2022/09/18 06:20:42;;;;;;;9.52;2.22;;;;;;;10.90;100.00;101493.09;5031826;28;20029;-84
2022/09/18 06:23:08;;;;;;;8.48;2.17;;;;;;;10.97;100.00;101487.31;5031750;28;20045;-84
2022/09/18 06:25:35;;;;;;;10.80;2.08;;;;;;;11.05;100.00;101489.44;5030881;28;20458;-84
2022/09/18 06:28:01;;;;;;;12.77;2.33;;;;;;;11.11;100.00;101490.84;5018857;28;20029;-84
2022/09/18 06:30:29;;;;;;;12.02;2.20;;;;;;;11.14;100.00;101480.94;5012966;28;20038;-83
2022/09/18 06:32:55;;;;;;;12.88;3.03;;;;;;;11.18;100.00;101482.41;5031426;28;20048;-84
2022/09/18 06:35:21;;;;;;;8.07;2.20;;;;;;;11.24;100.00;101481.19;5031067;28;20036;-85
2022/09/18 06:37:46;;;;;;;10.45;2.17;;;;;;;11.27;100.00;101471.28;5012984;28;20033;-84
2022/09/18 06:40:12;;;;;;;10.27;2.40;;;;;;;11.32;100.00;101467.50;5013085;28;20087;-85
2022/09/18 06:42:37;;;;;;;12.20;2.58;;;;;;;11.36;100.00;101474.25;5012474;28;20017;-85
2022/09/18 06:45:03;;;;;;;10.73;2.47;;;;;;;11.37;100.00;101481.22;5027130;28;20036;-85
2022/09/18 06:47:28;;;;;;;7.95;2.33;;;;;;;11.41;100.00;101474.78;5026527;28;20014;-82
2022/09/18 06:49:54;;;;;;;13.13;2.55;;;;;;;11.40;100.00;101475.72;5029867;28;20025;-84
2022/09/18 06:52:19;;;;;;;9.32;2.33;;;;;;;11.45;100.00;101473.63;5029608;28;20017;-85
2022/09/18 06:54:44;;;;;;;12.35;2.50;;;;;;;11.45;100.00;101473.63;5030954;28;20033;-85
2022/09/18 06:57:10;;;;;;;11.90;2.80;;;;;;;11.46;100.00;101481.44;5030025;28;20036;-85
2022/09/18 06:59:36;;;;;;;8.52;2.60;;;;;;;11.48;100.00;101479.53;5012421;28;20032;-85
2022/09/18 07:02:02;;;;;;;7.78;1.88;;;;;;;11.50;100.00;101474.16;5010936;28;20022;-85
2022/09/18 07:04:28;;;;;;;10.38;2.15;;;;;;;11.50;100.00;101472.38;5012925;28;20083;-85
2022/09/18 07:06:53;;;;;;;7.55;2.40;;;;;;;11.57;100.00;101478.06;5029810;28;20048;-85
2022/09/18 07:09:18;;;;;;;9.95;2.30;;;;;;;11.60;100.00;101480.47;5012368;28;20033;-86
2022/09/18 07:11:44;;;;;;;9.82;2.00;;;;;;;11.61;100.00;101482.19;5030390;28;20146;-86
2022/09/18 07:14:09;;;;;;;8.75;1.90;;;;;;;11.67;100.00;101473.03;5029349;28;20057;-85
2022/09/18 07:16:35;;;;;;;8.20;2.25;;;;;;;11.72;100.00;101477.03;5009944;28;20034;-86
2022/09/18 07:19:00;;;;;;;9.10;2.08;;;;;;;11.78;100.00;101470.53;5030506;28;20036;-86
2022/09/18 07:21:26;;;;;;;9.93;2.35;;;;;;;11.77;100.00;101477.56;5029878;28;20029;-86
2022/09/18 07:23:51;;;;;;;11.90;2.25;;;;;;;11.88;100.00;101479.47;5030633;28;20033;-86
2022/09/18 07:26:17;;;;;;;8.52;2.10;;;;;;;11.93;100.00;101459.75;5028537;28;20025;-87
2022/09/18 07:28:43;;;;;;;7.97;1.90;;;;;;;11.97;100.00;101459.53;5028545;28;20037;-87
2022/09/18 07:31:09;;;;;;;6.82;1.92;;;;;;;11.97;100.00;101451.63;5020496;28;20394;-87
2022/09/18 07:33:34;;;;;;;7.40;2.00;;;;;;;12.02;100.00;101446.88;5011695;28;20032;-87
2022/09/18 07:36:01;;;;;;;9.05;2.03;;;;;;;12.05;100.00;101458.06;5011737;28;20414;-82
2022/09/18 07:38:27;;;;;;;8.73;2.05;;;;;;;12.12;100.00;101447.91;5012251;28;20033;-84
2022/09/18 07:40:52;;;;;;;12.00;2.00;;;;;;;12.20;100.00;101448.22;5029646;28;20060;-86
2022/09/18 07:43:18;;;;;;;7.25;1.80;;;;;;;12.23;100.00;101445.34;5011691;28;20090;-86
2022/09/18 07:45:43;;;;;;;7.68;1.80;;;;;;;12.25;100.00;101448.72;5030050;28;20021;-85
2022/09/18 07:48:11;;;;;;;6.85;1.90;;;;;;;12.28;100.00;101459.06;4995932;28;20057;-86
2022/09/18 07:50:37;;;;;;;6.80;2.00;;;;;;;12.28;100.00;101459.06;5023374;28;20156;-86
2022/09/18 07:53:04;;;;;;;8.40;2.00;;;;;;;12.33;100.00;101449.00;5029300;28;20033;-86
2022/09/18 07:55:30;;;;;;;9.05;2.30;;;;;;;12.48;100.00;101447.94;5029301;28;20365;-86
2022/09/18 07:57:58;;;;;;;7.20;2.00;;;;;;;12.61;100.00;101450.50;5011207;28;20025;-85
2022/09/18 08:00:25;;;;;;;10.00;2.08;;;;;;;12.79;100.00;101453.59;5028174;28;20536;-86
2022/09/18 08:02:59;;;;;;;10.23;1.80;;;;;;;12.88;100.00;101450.28;5008289;28;21645;-86
2022/09/18 08:05:25;;;;;;;8.48;1.80;;;;;;;12.98;100.00;101446.00;5028220;28;20021;-85
2022/09/18 08:07:50;;;;;;;7.85;1.80;;;;;;;13.01;100.00;101447.56;5028157;28;20029;-86
2022/09/18 08:10:15;;;;;;;7.70;1.70;;;;;;;13.11;100.00;101449.41;5026265;28;20037;-86
2022/09/18 08:12:41;;;;;;;6.80;1.42;;;;;;;13.09;100.00;101446.03;5009538;28;20402;-84
2022/09/18 08:15:07;;;;;;;6.15;2.00;;;;;;;13.15;100.00;101444.72;5012006;28;20018;-86
2022/09/18 08:17:32;;;;;;;6.50;2.03;;;;;;;13.18;100.00;101442.72;5012680;28;20470;-84
2022/09/18 08:19:57;;;;;;;7.10;1.90;;;;;;;13.18;100.00;101450.66;5009009;28;20026;-90
2022/09/18 08:22:23;;;;;;;7.03;1.50;;;;;;;13.08;100.00;101457.56;5008391;28;20096;-88
2022/09/18 08:24:48;;;;;;;8.02;1.88;;;;;;;13.03;100.00;101453.59;5009306;28;20030;-89
2022/09/18 08:27:13;;;;;;;6.28;1.52;;;;;;;12.91;100.00;101454.50;4991206;28;20025;-89
2022/09/18 08:29:39;;;;;;;4.20;1.42;;;;;;;12.93;100.00;101463.16;5011996;28;20033;-90
2022/09/18 08:32:04;;;;;;;6.72;1.73;;;;;;;12.82;100.00;101464.81;4982469;28;20026;-85
2022/09/18 08:34:30;;;;;;;6.10;1.73;;;;;;;12.75;100.00;101465.34;5009510;28;20030;-86
2022/09/18 08:36:55;;;;;;;10.25;1.80;;;;;;;12.70;100.00;101470.13;5009466;28;20018;-86
2022/09/18 08:39:21;;;;;;;4.72;1.60;;;;;;;12.59;100.00;101472.69;4991549;28;20117;-86
2022/09/18 08:42:07;;;;;;;4.18;1.38;;;;;;;12.56;100.00;101468.47;4992356;28;20056;-87
2022/09/18 08:44:54;;;;;;;8.48;1.60;;;;;;;12.50;100.00;101474.22;4991782;28;20030;-86
2022/09/18 08:47:49;;;;;;;3.33;1.10;;;;;;;12.50;100.00;101469.78;5008760;28;20100;-86
2022/09/18 08:50:19;;;;;;;8.50;1.60;;;;;;;12.57;100.00;101461.41;4992533;28;20041;-86
2022/09/18 08:52:49;;;;;;;4.65;1.60;;;;;;;12.62;100.00;101467.19;5009120;28;20044;-86
2022/09/18 08:55:43;;;;;;;5.25;1.90;;;;;;;12.73;100.00;101465.44;5009064;28;20091;-87
2022/09/18 08:58:29;;;;;;;5.38;1.48;;;;;;;12.73;100.00;101469.88;5006165;28;20136;-86
2022/09/18 09:01:00;;;;;;;5.15;1.30;;;;;;;12.70;100.00;101473.59;4981721;28;20080;-87
2022/09/18 09:03:47;;;;;;;4.72;1.50;;;;;;;12.65;100.00;101474.88;5009479;28;20026;-86
2022/09/18 09:06:50;;;;;;;7.38;1.60;;;;;;;12.70;100.00;101478.03;5003755;28;20440;-86
2022/09/18 09:09:44;;;;;;;5.15;1.70;;;;;;;12.71;100.00;101471.78;4995207;28;20488;-87
2022/09/18 09:12:53;;;;;;;6.40;1.70;;;;;;;12.73;100.00;101483.09;5012193;28;20109;-87
2022/09/18 09:15:36;;;;;;;9.27;2.10;;;;;;;12.67;100.00;101480.91;4974815;28;20054;-88
2022/09/18 09:18:17;;;;;;;3.85;1.50;;;;;;;12.71;100.00;101471.78;5012364;28;20036;-87
2022/09/18 09:20:50;;;;;;;5.32;1.50;;;;;;;12.73;100.00;101464.59;5012695;28;20084;-88
2022/09/18 09:23:33;;;;;;;5.25;1.60;;;;;;;12.74;100.00;101466.28;5012164;28;20025;-88
2022/09/18 09:26:17;;;;;;;7.53;2.03;;;;;;;12.83;100.00;101469.13;4995446;28;20021;-87
2022/09/18 09:29:16;;;;;;;4.63;1.70;;;;;;;12.80;100.00;101477.25;4995117;28;20471;-88
2022/09/18 09:31:45;;;;;;;4.85;1.70;;;;;;;12.76;100.00;101464.38;4994574;28;20186;-87
2022/09/18 09:34:32;;;;;;;5.22;1.90;;;;;;;12.79;100.00;101469.44;4993853;28;20100;-87
2022/09/18 09:37:01;;;;;;;7.18;2.60;;;;;;;12.77;100.00;101474.00;5012603;28;20021;-88
2022/09/18 09:39:38;;;;;;;4.35;1.90;;;;;;;12.71;100.00;101480.56;4995197;28;20105;-87
2022/09/18 09:42:11;;;;;;;4.60;1.88;;;;;;;12.73;100.00;101477.81;4994248;28;20419;-86
2022/09/18 09:44:50;;;;;;;11.75;2.67;;;;;;;12.71;100.00;101474.44;4995086;28;20025;-86
2022/09/18 09:47:37;;;;;;;7.43;2.20;;;;;;;12.66;100.00;101482.69;5011518;28;20036;-87
2022/09/18 09:50:48;;;;;;;7.88;3.00;;;;;;;12.73;100.00;101483.09;4993293;28;20033;-87
2022/09/18 09:53:13;;;;;;;8.27;2.50;;;;;;;12.75;100.00;101474.09;4981147;28;20041;-87
2022/09/18 09:56:06;;;;;;;7.03;2.40;;;;;;;12.82;100.00;101466.59;4994504;28;20025;-86
2022/09/18 09:58:44;;;;;;;5.38;2.28;;;;;;;12.88;100.00;101463.50;5012521;28;20026;-87
2022/09/18 10:01:45;;;;;;;8.15;2.50;;;;;;;12.96;100.00;101445.28;5011630;28;20029;-86
2022/09/18 10:04:39;;;;;;;6.50;3.00;;;;;;;13.02;100.00;101449.25;4981195;28;20048;-85
2022/09/18 10:07:16;;;;;;;6.13;2.65;;;;;;;13.12;100.00;101440.53;4994625;28;20057;-86
2022/09/18 10:09:54;;;;;;;9.88;2.13;;;;;;;13.18;100.00;101434.81;4982854;28;20034;-87
2022/09/18 10:12:42;;;;;;;5.55;2.00;;;;;;;13.26;100.00;101431.59;4993980;28;20134;-88
2022/09/18 10:15:23;;;;;;;5.50;1.70;;;;;;;13.26;100.00;101431.59;5001101;28;20066;-85
2022/09/18 10:17:51;;;;;;;4.97;1.70;;;;;;;13.38;100.00;101429.81;5024940;28;20036;-85
2022/09/18 10:20:26;;;;;;;9.02;1.90;;;;;;;13.47;100.00;101439.69;5013436;28;20402;-88
2022/09/18 10:22:51;;;;;;;6.68;1.73;;;;;;;13.49;100.00;101440.41;5031563;28;20446;-86
2022/09/18 10:25:42;;;;;;;8.48;1.90;;;;;;;13.61;100.00;101441.25;5010438;28;20072;-87
2022/09/18 10:28:12;;;;;;;8.63;1.65;;;;;;;13.65;100.00;101448.88;5009639;28;20053;-87
2022/09/18 10:31:04;;;;;;;6.10;1.52;;;;;;;13.72;100.00;101438.66;5031105;28;20029;-88
2022/09/18 10:33:34;;;;;;;3.78;1.40;;;;;;;13.73;100.00;101441.19;5031292;28;20833;-87
2022/09/18 10:36:14;;;;;;;3.83;0.95;;;;;;;13.77;100.00;101447.91;5031569;28;20061;-87
2022/09/18 10:38:39;;;;;;;4.10;1.10;;;;;;;13.79;100.00;101440.69;5031407;28;20025;-88
2022/09/18 10:41:35;;;;;;;5.90;1.20;;;;;;;13.85;100.00;101441.19;5031984;28;20025;-89
2022/09/18 10:44:13;;;;;;;7.07;0.88;;;;;;;13.81;99.28;101440.56;5012711;28;20045;-90
2022/09/18 10:46:49;;;;;;;2.63;1.08;;;;;;;13.78;97.72;101433.72;5031766;28;20091;-92
2022/09/18 10:49:21;;;;;;;4.75;1.08;;;;;;;13.81;98.30;101432.63;5031744;28;20097;-89
2022/09/18 10:51:47;;;;;;;5.18;1.35;;;;;;;13.86;99.29;101419.88;5031648;28;20036;-89
2022/09/18 10:54:18;;;;;;;5.90;1.20;;;;;;;13.96;98.77;101420.84;5012835;28;20485;-91
2022/09/18 10:56:44;;;;;;;3.78;1.15;;;;;;;14.01;99.71;101421.34;5031552;28;20421;-90
2022/09/18 10:59:27;;;;;;;5.43;1.50;;;;;;;13.98;99.99;101418.91;5030070;28;20075;-92
2022/09/18 11:02:02;;;;;;;4.57;1.88;;;;;;;14.03;100.00;101415.94;5027200;28;20087;-92
2022/09/18 11:04:28;;;;;;;5.35;1.83;;;;;;;14.07;100.00;101412.06;5031544;28;20537;-91
2022/09/18 11:07:01;;;;;;;4.72;1.45;;;;;;;13.98;99.63;101415.44;5030889;28;20025;-91
2022/09/18 11:09:45;;;;;;;3.47;1.90;;;;;;;14.05;99.71;101420.13;5031214;28;20033;-90
2022/09/18 11:12:18;;;;;;;5.20;1.60;;;;;;;13.84;97.72;101413.03;5030217;28;20114;-90
2022/09/18 11:14:49;;;;;;;5.20;1.83;;;;;;;13.72;99.42;101423.63;5013385;28;20053;-89
2022/09/18 11:17:25;;;;;;;6.78;1.85;;;;;;;13.61;100.00;101428.91;5042342;28;20030;-88
2022/09/18 11:19:53;;;;;;;4.13;1.50;;;;;;;13.52;100.00;101436.69;5043695;28;20104;-88
2022/09/18 11:22:48;;;;;;;12.52;2.00;;;;;;;13.50;100.00;101439.44;5026214;28;20083;-85
2022/09/18 11:25:18;;;;;;;12.45;3.15;;;;;;;13.25;100.00;101429.09;5034788;28;20513;-81
2022/09/18 11:27:49;;;;;;;4.22;1.83;;;;;;;13.14;100.00;101441.25;5048120;28;20021;-83
2022/09/18 11:30:23;;;;;;;12.15;2.55;;;;;;;13.03;100.00;101457.06;5046832;28;20289;-82
2022/09/18 11:32:53;;;;;;;5.97;1.40;;;;;;;12.93;100.00;101453.44;5032681;28;20034;-83